sensor_id;sensor_type;location;lat;lon;timestamp;temperature;humidity
12434;DHT22;6281;49.038;8.372;2023-01-26T00:02:21;2.40;99.90
12434;DHT22;6281;49.038;8.372;2023-01-26T00:04:48;2.40;99.90
12434;DHT22;6281;49.038;8.372;2023-01-26T00:07:15;2.30;99.90
12434;DHT22;6281;49.038;8.372;2023-01-26T00:09:42;2.30;99.90
12434;DHT22;6281;49.038;8.372;2023-01-26T00:12:09;2.40;99.90
12434;DHT22;6281;49.038;8.372;2023-01-26T00:14:36;2.50;99.90
12434;DHT22;6281;49.038;8.372;2023-01-26T00:17:18;2.60;99.90
12434;DHT22;6281;49.038;8.372;2023-01-26T00:19:52;2.50;99.90
12434;DHT22;6281;49.038;8.372;2023-01-26T00:22:19;2.40;99.90
12434;DHT22;6281;49.038;8.372;2023-01-26T00:24:46;2.50;99.90
12434;DHT22;6281;49.038;8.372;2023-01-26T00:27:13;2.50;99.90
12434;DHT22;6281;49.038;8.372;2023-01-26T00:29:40;2.50;99.90
12434;DHT22;6281;49.038;8.372;2023-01-26T00:32:14;2.40;99.90
12434;DHT22;6281;49.038;8.372;2023-01-26T00:34:42;2.50;99.90
12434;DHT22;6281;49.038;8.372;2023-01-26T00:37:08;2.60;99.90
12434;DHT22;6281;49.038;8.372;2023-01-26T00:39:35;2.60;99.90
12434;DHT22;6281;49.038;8.372;2023-01-26T00:42:02;2.60;99.90
12434;DHT22;6281;49.038;8.372;2023-01-26T00:44:40;2.60;99.90
12434;DHT22;6281;49.038;8.372;2023-01-26T00:47:09;2.60;99.90
12434;DHT22;6281;49.038;8.372;2023-01-26T00:49:37;2.60;99.90
12434;DHT22;6281;49.038;8.372;2023-01-26T00:52:05;2.50;99.90
12434;DHT22;6281;49.038;8.372;2023-01-26T00:54:33;2.50;99.90
12434;DHT22;6281;49.038;8.372;2023-01-26T00:57:00;2.50;99.90
12434;DHT22;6281;49.038;8.372;2023-01-26T00:59:27;2.50;99.90
12434;DHT22;6281;49.038;8.372;2023-01-26T01:01:57;2.40;99.90
12434;DHT22;6281;49.038;8.372;2023-01-26T01:04:25;2.40;99.90
12434;DHT22;6281;49.038;8.372;2023-01-26T01:06:54;2.40;99.90
12434;DHT22;6281;49.038;8.372;2023-01-26T01:09:22;2.60;99.90
12434;DHT22;6281;49.038;8.372;2023-01-26T01:11:49;2.60;99.90
12434;DHT22;6281;49.038;8.372;2023-01-26T01:14:17;2.50;99.90
12434;DHT22;6281;49.038;8.372;2023-01-26T01:16:44;2.50;99.90
12434;DHT22;6281;49.038;8.372;2023-01-26T01:19:13;2.40;99.90
12434;DHT22;6281;49.038;8.372;2023-01-26T01:21:40;2.40;99.90
12434;DHT22;6281;49.038;8.372;2023-01-26T01:24:07;2.40;99.90
12434;DHT22;6281;49.038;8.372;2023-01-26T01:26:36;2.40;99.90
12434;DHT22;6281;49.038;8.372;2023-01-26T01:29:03;2.30;99.90
12434;DHT22;6281;49.038;8.372;2023-01-26T01:31:30;2.30;99.90
12434;DHT22;6281;49.038;8.372;2023-01-26T01:33:57;2.40;99.90
12434;DHT22;6281;49.038;8.372;2023-01-26T01:36:24;2.40;99.90
12434;DHT22;6281;49.038;8.372;2023-01-26T01:38:51;2.30;99.90
12434;DHT22;6281;49.038;8.372;2023-01-26T01:41:20;2.20;99.90
12434;DHT22;6281;49.038;8.372;2023-01-26T01:43:49;2.40;99.90
12434;DHT22;6281;49.038;8.372;2023-01-26T01:46:23;2.40;99.90
12434;DHT22;6281;49.038;8.372;2023-01-26T01:48:54;2.40;99.90
12434;DHT22;6281;49.038;8.372;2023-01-26T01:51:28;2.50;99.90
12434;DHT22;6281;49.038;8.372;2023-01-26T01:54:00;2.50;99.90
12434;DHT22;6281;49.038;8.372;2023-01-26T01:56:29;2.50;99.90
12434;DHT22;6281;49.038;8.372;2023-01-26T01:59:00;2.30;99.90
12434;DHT22;6281;49.038;8.372;2023-01-26T02:01:28;2.30;99.90
12434;DHT22;6281;49.038;8.372;2023-01-26T02:03:59;2.40;99.90
12434;DHT22;6281;49.038;8.372;2023-01-26T02:06:30;2.30;99.90
12434;DHT22;6281;49.038;8.372;2023-01-26T02:08:59;2.20;99.90
12434;DHT22;6281;49.038;8.372;2023-01-26T02:11:31;2.20;99.90
12434;DHT22;6281;49.038;8.372;2023-01-26T02:14:02;2.30;99.90
12434;DHT22;6281;49.038;8.372;2023-01-26T02:16:30;2.30;99.90
12434;DHT22;6281;49.038;8.372;2023-01-26T02:18:57;2.30;99.90
12434;DHT22;6281;49.038;8.372;2023-01-26T02:21:24;2.40;99.90
12434;DHT22;6281;49.038;8.372;2023-01-26T02:24:06;2.50;99.90
12434;DHT22;6281;49.038;8.372;2023-01-26T02:26:37;2.50;99.90
12434;DHT22;6281;49.038;8.372;2023-01-26T02:29:07;2.40;99.90
12434;DHT22;6281;49.038;8.372;2023-01-26T02:31:35;2.40;99.90
12434;DHT22;6281;49.038;8.372;2023-01-26T02:34:03;2.30;99.90
12434;DHT22;6281;49.038;8.372;2023-01-26T02:36:32;2.30;99.90
12434;DHT22;6281;49.038;8.372;2023-01-26T02:39:11;2.30;99.90
12434;DHT22;6281;49.038;8.372;2023-01-26T02:41:42;2.30;99.90
12434;DHT22;6281;49.038;8.372;2023-01-26T02:44:28;2.30;99.90
12434;DHT22;6281;49.038;8.372;2023-01-26T02:46:56;2.20;99.90
12434;DHT22;6281;49.038;8.372;2023-01-26T02:49:23;2.20;99.90
12434;DHT22;6281;49.038;8.372;2023-01-26T02:52:07;2.20;99.90
12434;DHT22;6281;49.038;8.372;2023-01-26T02:54:34;2.30;99.90
12434;DHT22;6281;49.038;8.372;2023-01-26T02:57:20;2.40;99.90
12434;DHT22;6281;49.038;8.372;2023-01-26T02:59:47;2.30;99.90
12434;DHT22;6281;49.038;8.372;2023-01-26T03:02:14;2.30;99.90
12434;DHT22;6281;49.038;8.372;2023-01-26T03:04:41;2.50;99.90
12434;DHT22;6281;49.038;8.372;2023-01-26T03:07:08;2.40;99.90
12434;DHT22;6281;49.038;8.372;2023-01-26T03:09:36;2.30;99.90
12434;DHT22;6281;49.038;8.372;2023-01-26T03:12:03;2.40;99.90
12434;DHT22;6281;49.038;8.372;2023-01-26T03:14:32;2.40;99.90
12434;DHT22;6281;49.038;8.372;2023-01-26T03:16:59;2.30;99.90
12434;DHT22;6281;49.038;8.372;2023-01-26T03:19:26;2.30;99.90
12434;DHT22;6281;49.038;8.372;2023-01-26T03:22:11;2.30;99.90
12434;DHT22;6281;49.038;8.372;2023-01-26T03:24:55;2.50;99.90
12434;DHT22;6281;49.038;8.372;2023-01-26T03:27:41;2.50;99.90
12434;DHT22;6281;49.038;8.372;2023-01-26T03:30:11;2.50;99.90
12434;DHT22;6281;49.038;8.372;2023-01-26T03:32:38;2.60;99.90
12434;DHT22;6281;49.038;8.372;2023-01-26T03:35:06;2.40;99.90
12434;DHT22;6281;49.038;8.372;2023-01-26T03:37:39;2.40;99.90
12434;DHT22;6281;49.038;8.372;2023-01-26T03:40:12;2.30;99.90
12434;DHT22;6281;49.038;8.372;2023-01-26T03:42:57;2.20;99.90
12434;DHT22;6281;49.038;8.372;2023-01-26T03:45:42;2.10;99.90
12434;DHT22;6281;49.038;8.372;2023-01-26T03:48:26;1.90;99.90
12434;DHT22;6281;49.038;8.372;2023-01-26T03:51:10;1.70;99.90
12434;DHT22;6281;49.038;8.372;2023-01-26T03:53:55;1.90;99.90
12434;DHT22;6281;49.038;8.372;2023-01-26T03:56:39;1.90;99.90
12434;DHT22;6281;49.038;8.372;2023-01-26T03:59:06;1.90;99.90
12434;DHT22;6281;49.038;8.372;2023-01-26T04:01:37;1.70;99.90
12434;DHT22;6281;49.038;8.372;2023-01-26T04:04:06;1.40;99.90
12434;DHT22;6281;49.038;8.372;2023-01-26T04:06:51;1.80;99.90
12434;DHT22;6281;49.038;8.372;2023-01-26T04:09:36;1.90;99.90
12434;DHT22;6281;49.038;8.372;2023-01-26T04:12:04;1.90;99.90
12434;DHT22;6281;49.038;8.372;2023-01-26T04:14:31;1.70;99.90
12434;DHT22;6281;49.038;8.372;2023-01-26T04:17:17;1.60;99.90
12434;DHT22;6281;49.038;8.372;2023-01-26T04:20:01;1.50;99.90
12434;DHT22;6281;49.038;8.372;2023-01-26T04:22:46;1.80;99.90
12434;DHT22;6281;49.038;8.372;2023-01-26T04:25:14;1.80;99.90
12434;DHT22;6281;49.038;8.372;2023-01-26T04:27:42;1.60;99.90
12434;DHT22;6281;49.038;8.372;2023-01-26T04:30:13;1.60;99.90
12434;DHT22;6281;49.038;8.372;2023-01-26T04:32:41;2.00;99.90
12434;DHT22;6281;49.038;8.372;2023-01-26T04:35:09;1.90;99.90
12434;DHT22;6281;49.038;8.372;2023-01-26T04:37:36;2.00;99.90
12434;DHT22;6281;49.038;8.372;2023-01-26T04:40:04;1.90;99.90
12434;DHT22;6281;49.038;8.372;2023-01-26T04:42:31;1.80;99.90
12434;DHT22;6281;49.038;8.372;2023-01-26T04:44:58;1.70;99.90
12434;DHT22;6281;49.038;8.372;2023-01-26T04:47:25;1.80;99.90
12434;DHT22;6281;49.038;8.372;2023-01-26T04:49:54;1.60;99.90
12434;DHT22;6281;49.038;8.372;2023-01-26T04:52:20;1.70;99.90
12434;DHT22;6281;49.038;8.372;2023-01-26T04:54:47;1.70;99.90
12434;DHT22;6281;49.038;8.372;2023-01-26T04:57:14;1.60;99.90
12434;DHT22;6281;49.038;8.372;2023-01-26T04:59:44;1.50;99.90
12434;DHT22;6281;49.038;8.372;2023-01-26T05:02:11;1.30;99.90
12434;DHT22;6281;49.038;8.372;2023-01-26T05:04:38;1.30;99.90
12434;DHT22;6281;49.038;8.372;2023-01-26T05:07:07;1.10;99.90
12434;DHT22;6281;49.038;8.372;2023-01-26T05:09:33;1.30;99.90
12434;DHT22;6281;49.038;8.372;2023-01-26T05:12:00;1.70;99.90
12434;DHT22;6281;49.038;8.372;2023-01-26T05:14:41;1.80;99.90
12434;DHT22;6281;49.038;8.372;2023-01-26T05:17:08;1.80;99.90
12434;DHT22;6281;49.038;8.372;2023-01-26T05:19:35;1.80;99.90
12434;DHT22;6281;49.038;8.372;2023-01-26T05:22:02;1.80;99.90
12434;DHT22;6281;49.038;8.372;2023-01-26T05:24:30;2.00;99.90
12434;DHT22;6281;49.038;8.372;2023-01-26T05:26:57;1.80;99.90
12434;DHT22;6281;49.038;8.372;2023-01-26T05:29:38;1.90;99.90
12434;DHT22;6281;49.038;8.372;2023-01-26T05:32:05;2.00;99.90
12434;DHT22;6281;49.038;8.372;2023-01-26T05:34:32;2.00;99.90
12434;DHT22;6281;49.038;8.372;2023-01-26T05:36:59;1.90;99.90
12434;DHT22;6281;49.038;8.372;2023-01-26T05:39:26;1.80;99.90
12434;DHT22;6281;49.038;8.372;2023-01-26T05:41:54;1.80;99.90
12434;DHT22;6281;49.038;8.372;2023-01-26T05:44:21;1.80;99.90
12434;DHT22;6281;49.038;8.372;2023-01-26T05:46:49;1.70;99.90
12434;DHT22;6281;49.038;8.372;2023-01-26T05:49:16;1.70;99.90
12434;DHT22;6281;49.038;8.372;2023-01-26T05:51:43;1.70;99.90
12434;DHT22;6281;49.038;8.372;2023-01-26T05:54:10;1.70;99.90
12434;DHT22;6281;49.038;8.372;2023-01-26T05:56:37;1.70;99.90
12434;DHT22;6281;49.038;8.372;2023-01-26T05:59:05;1.60;99.90
12434;DHT22;6281;49.038;8.372;2023-01-26T06:01:32;1.70;99.90
12434;DHT22;6281;49.038;8.372;2023-01-26T06:03:59;1.50;99.90
12434;DHT22;6281;49.038;8.372;2023-01-26T06:06:26;1.50;99.90
12434;DHT22;6281;49.038;8.372;2023-01-26T06:08:53;1.50;99.90
12434;DHT22;6281;49.038;8.372;2023-01-26T06:11:20;1.50;99.90
12434;DHT22;6281;49.038;8.372;2023-01-26T06:13:46;1.50;99.90
12434;DHT22;6281;49.038;8.372;2023-01-26T06:16:15;1.40;99.90
12434;DHT22;6281;49.038;8.372;2023-01-26T06:18:42;1.60;99.90
12434;DHT22;6281;49.038;8.372;2023-01-26T06:21:09;1.30;99.90
12434;DHT22;6281;49.038;8.372;2023-01-26T06:23:36;1.60;99.90
12434;DHT22;6281;49.038;8.372;2023-01-26T06:26:03;1.60;99.90
12434;DHT22;6281;49.038;8.372;2023-01-26T06:28:31;1.50;99.90
12434;DHT22;6281;49.038;8.372;2023-01-26T06:31:00;1.50;99.90
12434;DHT22;6281;49.038;8.372;2023-01-26T06:33:30;1.50;99.90
12434;DHT22;6281;49.038;8.372;2023-01-26T06:39:08;1.60;99.90
12434;DHT22;6281;49.038;8.372;2023-01-26T06:41:37;1.70;99.90
12434;DHT22;6281;49.038;8.372;2023-01-26T06:44:04;1.60;99.90
12434;DHT22;6281;49.038;8.372;2023-01-26T06:46:31;1.80;99.90
12434;DHT22;6281;49.038;8.372;2023-01-26T06:49:00;1.70;99.90
12434;DHT22;6281;49.038;8.372;2023-01-26T06:52:04;1.70;99.90
12434;DHT22;6281;49.038;8.372;2023-01-26T06:54:47;1.80;99.90
12434;DHT22;6281;49.038;8.372;2023-01-26T06:57:14;1.60;99.90
12434;DHT22;6281;49.038;8.372;2023-01-26T06:59:41;1.50;99.90
12434;DHT22;6281;49.038;8.372;2023-01-26T07:02:13;1.50;99.90
12434;DHT22;6281;49.038;8.372;2023-01-26T07:04:43;1.50;99.90
12434;DHT22;6281;49.038;8.372;2023-01-26T07:07:10;1.50;99.90
12434;DHT22;6281;49.038;8.372;2023-01-26T07:09:37;1.40;99.90
12434;DHT22;6281;49.038;8.372;2023-01-26T07:12:05;1.30;99.90
12434;DHT22;6281;49.038;8.372;2023-01-26T07:14:32;1.60;99.90
12434;DHT22;6281;49.038;8.372;2023-01-26T07:16:59;1.60;99.90
12434;DHT22;6281;49.038;8.372;2023-01-26T07:19:26;1.60;99.90
12434;DHT22;6281;49.038;8.372;2023-01-26T07:21:56;1.60;99.90
12434;DHT22;6281;49.038;8.372;2023-01-26T07:24:23;1.60;99.90
12434;DHT22;6281;49.038;8.372;2023-01-26T07:26:50;1.50;99.90
12434;DHT22;6281;49.038;8.372;2023-01-26T07:29:17;1.50;99.90
12434;DHT22;6281;49.038;8.372;2023-01-26T07:31:43;1.60;99.90
12434;DHT22;6281;49.038;8.372;2023-01-26T07:34:11;1.60;99.90
12434;DHT22;6281;49.038;8.372;2023-01-26T07:36:38;1.80;99.90
12434;DHT22;6281;49.038;8.372;2023-01-26T07:39:06;1.80;99.90
12434;DHT22;6281;49.038;8.372;2023-01-26T07:41:33;1.50;99.90
12434;DHT22;6281;49.038;8.372;2023-01-26T07:44:00;1.70;99.90
12434;DHT22;6281;49.038;8.372;2023-01-26T07:46:29;1.90;99.90
12434;DHT22;6281;49.038;8.372;2023-01-26T07:48:56;1.90;99.90
12434;DHT22;6281;49.038;8.372;2023-01-26T07:51:22;1.90;99.90
12434;DHT22;6281;49.038;8.372;2023-01-26T07:53:49;2.10;99.90
12434;DHT22;6281;49.038;8.372;2023-01-26T07:56:18;1.90;99.90
12434;DHT22;6281;49.038;8.372;2023-01-26T07:58:48;1.80;99.90
12434;DHT22;6281;49.038;8.372;2023-01-26T08:01:15;2.00;99.90
12434;DHT22;6281;49.038;8.372;2023-01-26T08:03:42;1.90;99.90
12434;DHT22;6281;49.038;8.372;2023-01-26T08:06:11;2.00;99.90
12434;DHT22;6281;49.038;8.372;2023-01-26T08:08:38;2.00;99.90
12434;DHT22;6281;49.038;8.372;2023-01-26T08:11:07;1.80;99.90
12434;DHT22;6281;49.038;8.372;2023-01-26T08:13:36;1.80;99.90
12434;DHT22;6281;49.038;8.372;2023-01-26T08:16:05;1.80;99.90
12434;DHT22;6281;49.038;8.372;2023-01-26T08:18:33;1.60;99.90
12434;DHT22;6281;49.038;8.372;2023-01-26T08:21:00;1.30;99.90
12434;DHT22;6281;49.038;8.372;2023-01-26T08:23:27;1.60;99.90
12434;DHT22;6281;49.038;8.372;2023-01-26T08:25:54;1.90;99.90
12434;DHT22;6281;49.038;8.372;2023-01-26T08:28:25;2.00;99.90
12434;DHT22;6281;49.038;8.372;2023-01-26T08:30:54;1.90;99.90
12434;DHT22;6281;49.038;8.372;2023-01-26T08:33:21;2.00;99.90
12434;DHT22;6281;49.038;8.372;2023-01-26T08:35:48;2.10;99.90
12434;DHT22;6281;49.038;8.372;2023-01-26T08:38:15;1.90;99.90
12434;DHT22;6281;49.038;8.372;2023-01-26T08:40:42;2.10;99.90
12434;DHT22;6281;49.038;8.372;2023-01-26T08:43:09;2.10;99.90
12434;DHT22;6281;49.038;8.372;2023-01-26T08:45:35;2.00;99.90
12434;DHT22;6281;49.038;8.372;2023-01-26T08:48:05;2.10;99.90
12434;DHT22;6281;49.038;8.372;2023-01-26T08:50:32;2.10;99.90
12434;DHT22;6281;49.038;8.372;2023-01-26T08:52:59;2.10;99.90
12434;DHT22;6281;49.038;8.372;2023-01-26T08:55:26;2.10;99.90
12434;DHT22;6281;49.038;8.372;2023-01-26T08:57:53;2.10;99.90
12434;DHT22;6281;49.038;8.372;2023-01-26T09:00:22;2.10;99.90
12434;DHT22;6281;49.038;8.372;2023-01-26T09:02:50;2.20;99.90
12434;DHT22;6281;49.038;8.372;2023-01-26T09:05:18;2.10;99.90
12434;DHT22;6281;49.038;8.372;2023-01-26T09:07:45;2.10;99.90
12434;DHT22;6281;49.038;8.372;2023-01-26T09:10:12;2.10;99.90
12434;DHT22;6281;49.038;8.372;2023-01-26T09:12:39;2.00;99.90
12434;DHT22;6281;49.038;8.372;2023-01-26T09:15:07;2.10;99.90
12434;DHT22;6281;49.038;8.372;2023-01-26T09:17:34;2.20;99.90
12434;DHT22;6281;49.038;8.372;2023-01-26T09:20:02;2.10;99.90
12434;DHT22;6281;49.038;8.372;2023-01-26T09:22:30;2.10;99.90
12434;DHT22;6281;49.038;8.372;2023-01-26T09:24:57;2.10;99.90
12434;DHT22;6281;49.038;8.372;2023-01-26T09:27:24;2.30;99.90
12434;DHT22;6281;49.038;8.372;2023-01-26T09:29:51;2.20;99.90
12434;DHT22;6281;49.038;8.372;2023-01-26T09:32:18;2.10;99.90
12434;DHT22;6281;49.038;8.372;2023-01-26T09:34:45;2.20;99.90
12434;DHT22;6281;49.038;8.372;2023-01-26T09:37:12;2.20;99.90
12434;DHT22;6281;49.038;8.372;2023-01-26T09:39:41;2.10;99.90
12434;DHT22;6281;49.038;8.372;2023-01-26T09:42:36;2.00;99.90
12434;DHT22;6281;49.038;8.372;2023-01-26T09:45:22;2.20;99.90
12434;DHT22;6281;49.038;8.372;2023-01-26T09:48:02;2.00;99.90
12434;DHT22;6281;49.038;8.372;2023-01-26T09:50:36;1.80;99.90
12434;DHT22;6281;49.038;8.372;2023-01-26T09:53:12;1.70;99.90
12434;DHT22;6281;49.038;8.372;2023-01-26T09:55:41;1.90;99.90
12434;DHT22;6281;49.038;8.372;2023-01-26T09:58:14;1.90;99.90
12434;DHT22;6281;49.038;8.372;2023-01-26T10:00:45;1.90;99.90
12434;DHT22;6281;49.038;8.372;2023-01-26T10:03:19;1.90;99.90
12434;DHT22;6281;49.038;8.372;2023-01-26T10:05:55;1.80;99.90
12434;DHT22;6281;49.038;8.372;2023-01-26T10:08:24;2.00;99.90
12434;DHT22;6281;49.038;8.372;2023-01-26T10:10:56;2.30;99.90
12434;DHT22;6281;49.038;8.372;2023-01-26T10:13:25;2.00;99.90
12434;DHT22;6281;49.038;8.372;2023-01-26T10:15:56;2.00;99.90
12434;DHT22;6281;49.038;8.372;2023-01-26T10:18:27;2.00;99.90
12434;DHT22;6281;49.038;8.372;2023-01-26T10:20:58;2.20;99.90
12434;DHT22;6281;49.038;8.372;2023-01-26T10:23:28;1.90;99.90
12434;DHT22;6281;49.038;8.372;2023-01-26T10:26:05;1.50;99.90
12434;DHT22;6281;49.038;8.372;2023-01-26T10:28:33;1.50;99.90
12434;DHT22;6281;49.038;8.372;2023-01-26T10:31:02;1.60;99.90
12434;DHT22;6281;49.038;8.372;2023-01-26T10:33:31;1.60;99.90
12434;DHT22;6281;49.038;8.372;2023-01-26T10:35:59;1.50;99.90
12434;DHT22;6281;49.038;8.372;2023-01-26T10:38:40;1.60;99.90
12434;DHT22;6281;49.038;8.372;2023-01-26T10:41:22;1.70;99.90
12434;DHT22;6281;49.038;8.372;2023-01-26T10:43:52;1.60;99.90
12434;DHT22;6281;49.038;8.372;2023-01-26T10:46:30;1.60;99.90
12434;DHT22;6281;49.038;8.372;2023-01-26T10:49:00;1.50;99.90
12434;DHT22;6281;49.038;8.372;2023-01-26T10:51:29;1.60;99.90
12434;DHT22;6281;49.038;8.372;2023-01-26T10:54:19;1.50;99.90
12434;DHT22;6281;49.038;8.372;2023-01-26T10:56:50;1.60;99.90
12434;DHT22;6281;49.038;8.372;2023-01-26T10:59:24;1.60;99.90
12434;DHT22;6281;49.038;8.372;2023-01-26T11:01:53;1.40;99.90
12434;DHT22;6281;49.038;8.372;2023-01-26T11:04:25;1.60;99.90
12434;DHT22;6281;49.038;8.372;2023-01-26T11:06:53;1.50;99.90
12434;DHT22;6281;49.038;8.372;2023-01-26T11:09:24;1.30;99.90
12434;DHT22;6281;49.038;8.372;2023-01-26T11:12:01;1.40;99.90
12434;DHT22;6281;49.038;8.372;2023-01-26T11:14:31;1.80;99.90
12434;DHT22;6281;49.038;8.372;2023-01-26T11:17:07;1.60;99.90
12434;DHT22;6281;49.038;8.372;2023-01-26T11:19:49;1.70;99.90
12434;DHT22;6281;49.038;8.372;2023-01-26T11:22:24;1.60;99.90
12434;DHT22;6281;49.038;8.372;2023-01-26T11:25:01;1.60;99.90
12434;DHT22;6281;49.038;8.372;2023-01-26T11:27:41;1.10;99.90
12434;DHT22;6281;49.038;8.372;2023-01-26T11:30:33;1.10;99.90
12434;DHT22;6281;49.038;8.372;2023-01-26T11:33:11;0.90;99.90
12434;DHT22;6281;49.038;8.372;2023-01-26T11:35:50;1.00;99.90
12434;DHT22;6281;49.038;8.372;2023-01-26T11:38:26;1.10;99.90
12434;DHT22;6281;49.038;8.372;2023-01-26T11:41:03;1.20;99.90
12434;DHT22;6281;49.038;8.372;2023-01-26T11:44:11;1.30;99.90
12434;DHT22;6281;49.038;8.372;2023-01-26T11:47:07;1.50;99.90
12434;DHT22;6281;49.038;8.372;2023-01-26T11:49:50;1.30;99.90
12434;DHT22;6281;49.038;8.372;2023-01-26T11:52:25;1.10;99.90
12434;DHT22;6281;49.038;8.372;2023-01-26T11:55:06;1.40;99.90
12434;DHT22;6281;49.038;8.372;2023-01-26T11:57:42;1.50;99.90
12434;DHT22;6281;49.038;8.372;2023-01-26T12:00:17;1.30;99.90
12434;DHT22;6281;49.038;8.372;2023-01-26T12:02:51;1.00;99.90
12434;DHT22;6281;49.038;8.372;2023-01-26T12:05:22;1.00;99.90
12434;DHT22;6281;49.038;8.372;2023-01-26T12:07:53;1.50;99.90
12434;DHT22;6281;49.038;8.372;2023-01-26T12:10:24;1.60;99.90
12434;DHT22;6281;49.038;8.372;2023-01-26T12:12:59;1.50;99.90
12434;DHT22;6281;49.038;8.372;2023-01-26T12:15:33;1.50;99.90
12434;DHT22;6281;49.038;8.372;2023-01-26T12:18:05;1.30;99.90
12434;DHT22;6281;49.038;8.372;2023-01-26T12:20:38;1.40;99.90
12434;DHT22;6281;49.038;8.372;2023-01-26T12:23:13;1.40;99.90
12434;DHT22;6281;49.038;8.372;2023-01-26T12:25:45;1.50;99.90
12434;DHT22;6281;49.038;8.372;2023-01-26T12:28:19;1.60;99.90
12434;DHT22;6281;49.038;8.372;2023-01-26T12:30:58;1.70;99.90
12434;DHT22;6281;49.038;8.372;2023-01-26T12:33:30;1.40;99.90
12434;DHT22;6281;49.038;8.372;2023-01-26T12:36:15;1.50;99.90
12434;DHT22;6281;49.038;8.372;2023-01-26T12:39:01;1.80;99.90
12434;DHT22;6281;49.038;8.372;2023-01-26T12:41:42;1.80;99.90
12434;DHT22;6281;49.038;8.372;2023-01-26T12:44:21;1.60;99.90
12434;DHT22;6281;49.038;8.372;2023-01-26T12:46:55;1.80;99.90
12434;DHT22;6281;49.038;8.372;2023-01-26T12:49:28;1.80;99.90
12434;DHT22;6281;49.038;8.372;2023-01-26T12:52:01;1.90;99.90
12434;DHT22;6281;49.038;8.372;2023-01-26T12:54:37;1.70;99.90
12434;DHT22;6281;49.038;8.372;2023-01-26T12:57:11;1.60;99.90
12434;DHT22;6281;49.038;8.372;2023-01-26T12:59:40;1.60;99.90
12434;DHT22;6281;49.038;8.372;2023-01-26T13:02:19;1.50;99.90
12434;DHT22;6281;49.038;8.372;2023-01-26T13:04:49;1.50;99.90
12434;DHT22;6281;49.038;8.372;2023-01-26T13:07:33;1.30;99.90
12434;DHT22;6281;49.038;8.372;2023-01-26T13:12:52;1.50;99.90
12434;DHT22;6281;49.038;8.372;2023-01-26T13:15:21;1.60;99.90
12434;DHT22;6281;49.038;8.372;2023-01-26T13:17:52;1.60;99.90
12434;DHT22;6281;49.038;8.372;2023-01-26T13:20:28;1.20;99.90
12434;DHT22;6281;49.038;8.372;2023-01-26T13:26:19;1.40;99.90
12434;DHT22;6281;49.038;8.372;2023-01-26T13:28:48;1.20;99.90
12434;DHT22;6281;49.038;8.372;2023-01-26T13:31:29;1.20;99.90
12434;DHT22;6281;49.038;8.372;2023-01-26T13:34:00;1.50;99.90
12434;DHT22;6281;49.038;8.372;2023-01-26T13:36:33;1.70;99.90
12434;DHT22;6281;49.038;8.372;2023-01-26T13:39:04;1.40;99.90
12434;DHT22;6281;49.038;8.372;2023-01-26T13:41:44;1.60;99.90
12434;DHT22;6281;49.038;8.372;2023-01-26T13:44:15;1.60;99.90
12434;DHT22;6281;49.038;8.372;2023-01-26T13:46:46;1.30;99.90
12434;DHT22;6281;49.038;8.372;2023-01-26T13:49:25;1.20;99.90
12434;DHT22;6281;49.038;8.372;2023-01-26T13:51:52;1.30;99.90
12434;DHT22;6281;49.038;8.372;2023-01-26T13:54:19;1.20;99.90
12434;DHT22;6281;49.038;8.372;2023-01-26T13:57:00;1.20;99.90
12434;DHT22;6281;49.038;8.372;2023-01-26T13:59:28;1.30;99.90
12434;DHT22;6281;49.038;8.372;2023-01-26T14:01:55;1.50;99.90
12434;DHT22;6281;49.038;8.372;2023-01-26T14:04:26;1.40;99.90
12434;DHT22;6281;49.038;8.372;2023-01-26T14:06:57;1.20;99.90
12434;DHT22;6281;49.038;8.372;2023-01-26T14:09:26;1.40;99.90
12434;DHT22;6281;49.038;8.372;2023-01-26T14:11:57;1.60;99.90
12434;DHT22;6281;49.038;8.372;2023-01-26T14:14:26;1.40;99.90
12434;DHT22;6281;49.038;8.372;2023-01-26T14:16:55;1.20;99.90
12434;DHT22;6281;49.038;8.372;2023-01-26T14:19:24;1.10;99.90
12434;DHT22;6281;49.038;8.372;2023-01-26T14:21:52;1.20;99.90
12434;DHT22;6281;49.038;8.372;2023-01-26T14:24:25;1.00;99.90
12434;DHT22;6281;49.038;8.372;2023-01-26T14:26:52;1.10;99.90
12434;DHT22;6281;49.038;8.372;2023-01-26T14:29:20;1.00;99.90
12434;DHT22;6281;49.038;8.372;2023-01-26T14:31:48;0.90;99.90
12434;DHT22;6281;49.038;8.372;2023-01-26T14:34:20;1.00;99.90
12434;DHT22;6281;49.038;8.372;2023-01-26T14:37:03;0.90;99.90
12434;DHT22;6281;49.038;8.372;2023-01-26T14:39:30;0.90;99.90
12434;DHT22;6281;49.038;8.372;2023-01-26T14:41:57;0.80;99.90
12434;DHT22;6281;49.038;8.372;2023-01-26T14:44:24;1.00;99.90
12434;DHT22;6281;49.038;8.372;2023-01-26T14:46:55;1.20;99.90
12434;DHT22;6281;49.038;8.372;2023-01-26T14:49:36;1.00;99.90
12434;DHT22;6281;49.038;8.372;2023-01-26T14:52:15;0.90;99.90
12434;DHT22;6281;49.038;8.372;2023-01-26T14:54:44;0.80;99.90
12434;DHT22;6281;49.038;8.372;2023-01-26T14:57:16;0.90;99.90
12434;DHT22;6281;49.038;8.372;2023-01-26T14:59:47;0.90;99.90
12434;DHT22;6281;49.038;8.372;2023-01-26T15:02:17;0.90;99.90
12434;DHT22;6281;49.038;8.372;2023-01-26T15:04:47;0.80;99.90
12434;DHT22;6281;49.038;8.372;2023-01-26T15:07:40;0.80;99.90
12434;DHT22;6281;49.038;8.372;2023-01-26T15:13:19;0.80;99.90
12434;DHT22;6281;49.038;8.372;2023-01-26T15:16:01;0.70;99.90
12434;DHT22;6281;49.038;8.372;2023-01-26T15:18:30;0.70;99.90
12434;DHT22;6281;49.038;8.372;2023-01-26T15:20:59;0.60;99.90
12434;DHT22;6281;49.038;8.372;2023-01-26T15:23:30;0.80;99.90
12434;DHT22;6281;49.038;8.372;2023-01-26T15:26:05;0.60;99.90
12434;DHT22;6281;49.038;8.372;2023-01-26T15:28:33;0.70;99.90
12434;DHT22;6281;49.038;8.372;2023-01-26T15:31:01;0.90;99.90
12434;DHT22;6281;49.038;8.372;2023-01-26T15:33:46;0.90;99.90
12434;DHT22;6281;49.038;8.372;2023-01-26T15:36:28;0.70;99.90
12434;DHT22;6281;49.038;8.372;2023-01-26T15:39:01;0.90;99.90
12434;DHT22;6281;49.038;8.372;2023-01-26T15:41:29;0.80;99.90
12434;DHT22;6281;49.038;8.372;2023-01-26T15:43:56;0.90;99.90
12434;DHT22;6281;49.038;8.372;2023-01-26T15:46:24;0.70;99.90
12434;DHT22;6281;49.038;8.372;2023-01-26T15:48:51;0.80;99.90
12434;DHT22;6281;49.038;8.372;2023-01-26T15:51:18;0.60;99.90
12434;DHT22;6281;49.038;8.372;2023-01-26T15:53:45;0.60;99.90
12434;DHT22;6281;49.038;8.372;2023-01-26T15:56:14;0.60;99.90
12434;DHT22;6281;49.038;8.372;2023-01-26T15:58:42;0.60;99.90
12434;DHT22;6281;49.038;8.372;2023-01-26T16:01:13;0.60;99.90
12434;DHT22;6281;49.038;8.372;2023-01-26T16:03:41;0.60;99.90
12434;DHT22;6281;49.038;8.372;2023-01-26T16:06:15;0.60;99.90
12434;DHT22;6281;49.038;8.372;2023-01-26T16:08:44;0.60;99.90
12434;DHT22;6281;49.038;8.372;2023-01-26T16:11:13;0.60;99.90
12434;DHT22;6281;49.038;8.372;2023-01-26T16:13:40;0.60;99.90
12434;DHT22;6281;49.038;8.372;2023-01-26T16:16:10;0.50;99.90
12434;DHT22;6281;49.038;8.372;2023-01-26T16:18:37;0.40;99.90
12434;DHT22;6281;49.038;8.372;2023-01-26T16:21:14;0.40;99.90
12434;DHT22;6281;49.038;8.372;2023-01-26T16:23:42;0.30;99.90
12434;DHT22;6281;49.038;8.372;2023-01-26T16:26:09;0.50;99.90
12434;DHT22;6281;49.038;8.372;2023-01-26T16:28:38;0.60;99.90
12434;DHT22;6281;49.038;8.372;2023-01-26T16:31:12;0.40;99.90
12434;DHT22;6281;49.038;8.372;2023-01-26T16:33:39;0.40;99.90
12434;DHT22;6281;49.038;8.372;2023-01-26T16:36:09;0.40;99.90
12434;DHT22;6281;49.038;8.372;2023-01-26T16:38:36;0.40;99.90
12434;DHT22;6281;49.038;8.372;2023-01-26T16:41:03;0.60;99.90